Bei Facebook empfehlenBei Twitter postenGoogle plusPinterest

Das Wetter im Erzgebirge am 19.06.2015

Wetter und Klima am 19.06.2015 Holzhau im Erzgebirge (630m ü.NN)
Letzte gemessene Temperatur und Uhrzeit der Messung23:45:00 Uhr7.00 °C
Temperatur (Maximum / Höchstwert) und Uhrzeit der Messung17:00:00 Uhr13.80 °C
Temperatur (Minimum / Tiefstwert) und Uhrzeit der Messung23:15:006.90 °C
Errechneter Absolutwert der Temperaturschwankungen zwischen Tmin und Tmax des Tages6.90 K
Errechnete Tagesmitteltemperatur9.58021 °C
Gesamt - Niederschlag des Tages (in flüssiger Form)1.03 Liter / m²
Luftdruck (Maximum / Höchstwert) und Zeitpunkt der Messung23:00:00 Uhr1013.80 hPa
Luftdruck (Minimum / Tiefstwert) und Zeitpunkt der Messung02:15:00 Uhr1011.40 hPa
Errechneter Absolutwert der Luftdruckschwankungen des Tages2.40 hPa
Höchste gemessene Windgeschwindigkeit und Uhrzeit der Messung13:45:00 Uhr16.20 km/h
Errechnete Windhäufigkeit in Relation zu den Messwerten des Tages16.66667 %
Niedrigste Windkühle (Windchill) und Zeitpunkt der Messung08:30:00 Uhr6.00 °C
Taupunkt (Maximum / Höchstwert) und Uhrzeit der Messung00:00:00 Uhr8.70 °C
Taupunkt (Minimum / Tiefstwert) und Uhrzeit der Messung22:30:004.70 °C
Anzahl der automatisch eingelesenen Messwerte 96

Detaillierte Wetter- und Klima- Messwerte für den 19.06.2015 in Holzhau im Erzgebirge (630m ü.NN)
ZeitTemperaturLuftdruckRel. LuftfeuchteWindWindrichtungWindchillTaupunktNiederschlag l/m²
23:45:007.00 °C1013.40 hPa88.00 %5.20 °C1.03
23:30:007.00 °C1013.50 hPa88.00 %5.20 °C1.03
23:15:006.90 °C1013.60 hPa88.00 %5.10 °C1.03
23:00:007.10 °C1013.80 hPa87.00 %5.10 °C1.03
22:45:007.00 °C1013.60 hPa86.00 %4.80 °C1.03
22:30:007.00 °C1013.70 hPa85.00 %4.70 °C1.03
22:15:007.30 °C1013.60 hPa85.00 %5.00 °C1.03
22:00:007.40 °C1013.70 hPa85.00 %5.00 °C1.03
21:45:007.30 °C1013.60 hPa84.00 %4.80 °C1.03
21:30:007.60 °C1013.50 hPa83.00 %4.90 °C1.03
21:15:008.40 °C1013.30 hPa81.00 %5.30 °C1.03
21:00:009.30 °C1013.40 hPa81.00 %6.20 °C1.03
20:45:009.90 °C1013.10 hPa82.00 %7.00 °C1.03
20:30:009.50 °C1012.90 hPa81.00 %6.40 °C1.03
20:15:009.80 °C1013.20 hPa80.00 %6.50 °C1.03
20:00:009.90 °C1013.00 hPa80.00 %6.60 °C1.03
19:45:0010.30 °C1013.00 hPa79.00 %6.80 °C1.03
19:30:0010.30 °C1013.10 hPa78.00 %6.60 °C1.03
19:15:0010.40 °C1013.00 hPa78.00 %6.70 °C1.03
19:00:0010.80 °C1012.90 hPa77.00 %6.90 °C1.03
18:45:0011.30 °C1013.00 hPa76.00 %7.20 °C1.03
18:30:0011.30 °C1012.90 hPa79.00 %9.00 km/hWSW10.40 °C7.80 °C1.03
18:15:0010.10 °C1012.90 hPa81.00 %2.52 km/hSW10.10 °C7.00 °C1.03
18:00:0010.10 °C1013.20 hPa74.00 %3.96 km/hWSW10.10 °C5.70 °C1.03
17:45:0011.70 °C1013.10 hPa70.00 %6.40 °C1.03
17:30:0012.30 °C1013.00 hPa67.00 %6.40 °C1.03
17:15:0012.90 °C1012.80 hPa65.00 %3.60 km/hNW12.90 °C6.50 °C1.03
17:00:0013.80 °C1012.70 hPa65.00 %7.30 °C1.03
16:45:0013.50 °C1013.00 hPa65.00 %5.04 km/hNW13.70 °C7.10 °C1.03
16:30:0013.60 °C1012.80 hPa66.00 %7.40 °C1.03
16:15:0013.30 °C1012.90 hPa67.00 %7.30 °C1.03
16:00:0012.90 °C1013.00 hPa70.00 %6.12 km/hNW12.80 °C7.60 °C1.03
15:45:0011.80 °C1013.10 hPa71.00 %6.70 °C1.03
15:30:0012.60 °C1013.10 hPa65.00 %2.88 km/hWSW12.60 °C6.20 °C1.03
15:15:0012.60 °C1013.00 hPa67.00 %6.60 °C1.03
15:00:0012.80 °C1013.00 hPa67.00 %6.12 km/hWNW12.70 °C6.80 °C1.03
14:45:0012.40 °C1013.10 hPa69.00 %3.60 km/hW12.40 °C6.90 °C1.03
14:30:0012.90 °C1013.10 hPa66.00 %2.52 km/hW12.90 °C6.70 °C1.03
14:15:0012.20 °C1013.10 hPa71.00 %7.10 °C1.03
14:00:0012.10 °C1013.10 hPa70.00 %4.68 km/hNW12.10 °C6.80 °C1.03
13:45:0012.60 °C1013.10 hPa68.00 %16.20 km/hWNW11.00 °C6.90 °C1.03
13:30:0012.80 °C1013.30 hPa70.00 %3.60 km/hWNW12.80 °C7.50 °C1.03
13:15:0012.90 °C1013.10 hPa68.00 %9.36 km/hNW12.20 °C7.10 °C1.03
13:00:0012.70 °C1013.10 hPa71.00 %7.60 °C1.03
12:45:0012.50 °C1013.10 hPa72.00 %7.60 °C1.03
12:30:0011.90 °C1013.10 hPa76.00 %7.80 °C1.03
12:15:0011.80 °C1013.00 hPa79.00 %8.30 °C1.03
12:00:0010.80 °C1013.30 hPa79.00 %7.30 °C1.03
11:45:0010.90 °C1013.20 hPa79.00 %7.40 °C1.03
11:30:0010.60 °C1013.00 hPa82.00 %7.70 °C1.03
11:15:0010.50 °C1013.00 hPa85.00 %8.10 °C1.03
11:00:009.20 °C1013.00 hPa87.00 %7.20 °C1.03
10:45:008.90 °C1013.00 hPa89.00 %7.20 °C1.03
10:30:008.40 °C1012.90 hPa90.00 %6.90 °C1.03
10:15:008.30 °C1012.80 hPa91.00 %6.90 °C1.03
10:00:007.70 °C1012.80 hPa90.00 %6.20 °C1.03
09:45:007.90 °C1012.70 hPa89.00 %6.20 °C1.03
09:30:008.10 °C1012.70 hPa89.00 %6.40 °C1.03
09:15:008.20 °C1012.70 hPa89.00 %6.50 °C1.03
09:00:008.10 °C1012.60 hPa90.00 %6.60 °C1.03
08:45:008.10 °C1012.60 hPa91.00 %6.70 °C1.03
08:30:007.60 °C1012.40 hPa91.00 %9.00 km/hSW6.00 °C6.20 °C1.03
08:15:007.70 °C1012.40 hPa91.00 %6.30 °C1.03
08:00:007.90 °C1012.20 hPa91.00 %6.50 °C1.03
07:45:007.90 °C1012.20 hPa92.00 %6.70 °C1.03
07:30:007.80 °C1012.20 hPa92.00 %6.60 °C1.03
07:15:007.70 °C1012.20 hPa92.00 %6.50 °C1.03
07:00:007.60 °C1012.30 hPa92.00 %6.40 °C1.03
06:45:007.60 °C1012.20 hPa92.00 %6.40 °C1.03
06:30:007.50 °C1012.10 hPa92.00 %6.30 °C1.03
06:15:007.40 °C1012.10 hPa92.00 %6.20 °C1.03
06:00:007.30 °C1012.10 hPa92.00 %6.10 °C1.03
05:45:007.20 °C1012.10 hPa92.00 %6.00 °C1.03
05:30:007.20 °C1012.10 hPa92.00 %6.00 °C1.03
05:15:007.20 °C1012.00 hPa92.00 %6.00 °C1.03
05:00:007.30 °C1011.90 hPa92.00 %6.10 °C1.03
04:45:007.60 °C1012.00 hPa92.00 %5.04 km/hWNW7.00 °C6.40 °C1.03
04:30:007.80 °C1011.70 hPa92.00 %6.60 °C1.03
04:15:007.90 °C1011.70 hPa91.00 %6.50 °C1.03
04:00:008.00 °C1011.90 hPa91.00 %6.60 °C1.03
03:45:008.10 °C1011.70 hPa91.00 %6.70 °C0.52
03:30:008.10 °C1011.70 hPa91.00 %6.70 °C0.52
03:15:008.30 °C1011.60 hPa91.00 %6.90 °C0.52
03:00:008.80 °C1011.70 hPa91.00 %7.40 °C0.52
02:45:008.90 °C1011.60 hPa91.00 %7.50 °C0.52
02:30:009.20 °C1011.50 hPa91.00 %7.80 °C0.52
02:15:009.10 °C1011.40 hPa91.00 %7.70 °C0.52
02:00:009.00 °C1011.50 hPa90.00 %7.50 °C0.52
01:45:009.10 °C1011.50 hPa90.00 %7.50 °C0.52
01:30:009.20 °C1011.50 hPa90.00 %7.60 °C0.52
01:15:009.30 °C1011.40 hPa90.00 %7.70 °C0.52
01:00:009.40 °C1011.70 hPa90.00 %7.80 °C0.52
00:45:009.50 °C1011.50 hPa90.00 %7.90 °C0.52
00:30:009.80 °C1011.50 hPa89.00 %8.10 °C0.52
00:15:0010.00 °C1011.60 hPa89.00 %8.30 °C0.52
00:00:0010.40 °C1011.60 hPa89.00 %8.70 °C 

Permanenter Link zu dieser Seite: Wetter im Erzgebirge am 19.06.2015
Performance-Info: Die Erstellung der Seite / Statistik(en) / Tabelle(n) erforderte 5 Datenbankserver-Abfrage(n) und dauerte 102 Millisekunden. (Dieser Messwert ist von der Gesamt-Auslastung des Servers abhängig.)
Erzgebirge - Wetter | Erzgebirge - Wetter (Mobilgeräte) | Komplette Klimadatenbank